createdAt,value
2022-11-22T00:05:20.092Z,99.90
2022-11-22T00:07:46.996Z,99.90
2022-11-22T00:10:14.436Z,99.90
2022-11-22T00:12:41.895Z,99.90
2022-11-22T00:15:09.689Z,99.90
2022-11-22T00:20:04.821Z,99.90
2022-11-22T00:22:32.674Z,99.90
2022-11-22T00:27:26.612Z,99.90
2022-11-22T00:44:37.060Z,99.90
2022-11-22T00:49:31.378Z,99.90
2022-11-22T00:56:52.718Z,99.90
2022-11-22T00:59:19.489Z,99.90
2022-11-22T01:06:40.662Z,99.90
2022-11-22T01:09:07.354Z,99.90
2022-11-22T01:16:28.346Z,99.90
2022-11-22T01:23:49.328Z,99.90
2022-11-22T01:26:16.058Z,99.90
2022-11-22T01:31:10.168Z,99.90
2022-11-22T01:36:04.277Z,99.90
2022-11-22T01:38:30.961Z,99.90
2022-11-22T01:40:57.670Z,99.90
2022-11-22T01:43:27.210Z,99.90
2022-11-22T01:45:54.238Z,99.90
2022-11-22T01:48:44.717Z,99.90
2022-11-22T01:51:14.288Z,99.90
2022-11-22T01:53:41.235Z,99.90
2022-11-22T01:56:12.936Z,99.90
2022-11-22T01:58:42.880Z,99.90
2022-11-22T02:01:09.603Z,99.90
2022-11-22T02:03:40.733Z,99.90
2022-11-22T02:06:08.349Z,99.90
2022-11-22T02:08:44.833Z,99.90
2022-11-22T02:11:12.793Z,99.90
2022-11-22T02:13:42.312Z,99.90
2022-11-22T02:16:10.210Z,99.90
2022-11-22T02:18:37.826Z,99.90
2022-11-22T02:21:05.565Z,99.90
2022-11-22T02:23:45.675Z,99.90
2022-11-22T02:26:12.823Z,99.90
2022-11-22T02:28:40.545Z,99.90
2022-11-22T02:31:07.610Z,99.90
2022-11-22T02:36:02.102Z,99.90
2022-11-22T02:38:35.260Z,99.90
2022-11-22T02:41:08.878Z,99.90
2022-11-22T02:43:42.822Z,99.90
2022-11-22T02:46:12.305Z,99.90
2022-11-22T02:48:43.584Z,99.90
2022-11-22T02:51:11.477Z,99.90
2022-11-22T02:53:38.167Z,99.90
2022-11-22T02:56:05.133Z,99.90
2022-11-22T02:58:31.869Z,99.90
2022-11-22T03:00:58.569Z,99.90
2022-11-22T03:03:25.269Z,99.90
2022-11-22T03:05:51.957Z,99.90
2022-11-22T03:08:18.756Z,99.90
2022-11-22T03:10:45.480Z,99.90
2022-11-22T03:13:12.121Z,99.90
2022-11-22T03:15:38.919Z,99.90
2022-11-22T03:18:05.816Z,99.90
2022-11-22T03:20:33.456Z,99.90
2022-11-22T03:23:01.079Z,99.90
2022-11-22T03:25:28.268Z,99.90
2022-11-22T03:27:55.307Z,99.90
2022-11-22T03:30:22.023Z,99.90
2022-11-22T03:35:16.042Z,99.90
2022-11-22T03:37:42.772Z,99.90
2022-11-22T03:40:09.838Z,99.90
2022-11-22T03:42:36.594Z,99.90
2022-11-22T03:49:57.548Z,99.90
2022-11-22T03:54:51.339Z,99.90
2022-11-22T03:59:45.215Z,99.90
2022-11-22T04:04:39.064Z,99.90
2022-11-22T04:07:05.813Z,99.90
2022-11-22T04:09:32.728Z,99.90
2022-11-22T04:11:59.701Z,99.90
2022-11-22T04:14:44.911Z,99.90
2022-11-22T04:17:35.107Z,99.90
2022-11-22T04:20:21.763Z,99.90
2022-11-22T04:23:09.752Z,99.90
2022-11-22T04:25:38.730Z,99.90
2022-11-22T04:28:07.504Z,99.90
2022-11-22T04:30:53.708Z,99.90
2022-11-22T04:33:20.945Z,99.90
2022-11-22T04:35:48.686Z,99.90
2022-11-22T04:38:16.524Z,99.90
2022-11-22T04:40:43.473Z,99.90
2022-11-22T04:43:52.539Z,99.90
2022-11-22T04:46:19.216Z,99.90
2022-11-22T04:51:33.387Z,99.90
2022-11-22T04:54:00.112Z,99.90
2022-11-22T04:56:26.793Z,99.90
2022-11-22T04:58:54.389Z,99.90
2022-11-22T05:06:15.478Z,99.90
2022-11-22T05:08:42.240Z,99.90
2022-11-22T05:13:41.555Z,99.90
2022-11-22T05:16:10.800Z,99.90
2022-11-22T05:18:37.908Z,99.90
2022-11-22T05:21:10.105Z,99.90
2022-11-22T05:26:22.061Z,99.90
2022-11-22T05:28:49.265Z,99.90
2022-11-22T05:31:24.547Z,99.90
2022-11-22T05:33:53.162Z,99.90
2022-11-22T05:36:20.454Z,99.90
2022-11-22T05:38:47.987Z,99.90
2022-11-22T05:41:15.718Z,99.90
2022-11-22T05:43:42.672Z,99.90
2022-11-22T05:46:12.537Z,99.90
2022-11-22T05:48:41.586Z,99.90
2022-11-22T05:51:10.803Z,99.90
2022-11-22T05:53:38.561Z,99.90
2022-11-22T05:56:19.542Z,99.90
2022-11-22T05:58:47.184Z,99.90
2022-11-22T06:01:16.644Z,99.90
2022-11-22T06:03:44.066Z,99.90
2022-11-22T06:06:11.284Z,99.90
2022-11-22T06:08:41.056Z,99.90
2022-11-22T06:11:10.517Z,99.90
2022-11-22T06:13:38.595Z,99.90
2022-11-22T06:16:06.819Z,99.90
2022-11-22T06:18:34.603Z,99.90
2022-11-22T06:21:03.656Z,99.90
2022-11-22T06:23:30.906Z,99.90
2022-11-22T06:26:05.498Z,99.90
2022-11-22T06:28:34.466Z,99.90
2022-11-22T06:31:06.752Z,99.90
2022-11-22T06:36:07.571Z,99.90
2022-11-22T06:38:34.758Z,99.90
2022-11-22T06:41:10.964Z,99.90
2022-11-22T06:43:43.633Z,99.90
2022-11-22T06:46:14.602Z,99.90
2022-11-22T06:48:42.927Z,99.90
2022-11-22T06:51:12.089Z,99.90
2022-11-22T06:53:47.268Z,99.90
2022-11-22T06:56:23.529Z,99.90
2022-11-22T06:58:51.902Z,99.90
2022-11-22T07:01:19.627Z,99.90
2022-11-22T07:03:47.003Z,99.90
2022-11-22T07:06:15.518Z,99.90
2022-11-22T07:08:43.327Z,99.90
2022-11-22T07:11:12.314Z,99.90
2022-11-22T07:13:39.535Z,99.90
2022-11-22T07:16:08.298Z,99.90
2022-11-22T07:18:35.247Z,99.90
2022-11-22T07:21:12.936Z,99.90
2022-11-22T07:23:42.134Z,99.90
2022-11-22T07:26:09.267Z,99.90
2022-11-22T07:28:36.597Z,99.90
2022-11-22T07:31:05.681Z,99.90
2022-11-22T07:33:32.952Z,99.90
2022-11-22T07:36:07.190Z,99.90
2022-11-22T07:38:34.469Z,99.90
2022-11-22T07:41:01.461Z,99.90
2022-11-22T07:43:28.622Z,99.90
2022-11-22T07:46:02.985Z,99.90
2022-11-22T07:48:29.780Z,99.90
2022-11-22T07:50:56.511Z,99.90
2022-11-22T07:53:23.322Z,99.90
2022-11-22T07:55:50.140Z,99.90
2022-11-22T07:58:16.852Z,99.90
2022-11-22T08:00:43.540Z,99.90
2022-11-22T08:03:13.142Z,99.90
2022-11-22T08:05:42.413Z,99.90
2022-11-22T08:08:09.120Z,99.90
2022-11-22T08:10:35.825Z,99.90
2022-11-22T08:13:02.528Z,99.90
2022-11-22T08:15:29.254Z,99.90
2022-11-22T08:17:56.044Z,99.90
2022-11-22T08:20:22.774Z,99.90
2022-11-22T08:22:49.464Z,99.90
2022-11-22T08:25:16.254Z,99.90
2022-11-22T08:27:43.765Z,99.90
2022-11-22T08:30:11.735Z,99.90
2022-11-22T08:32:38.708Z,99.90
2022-11-22T08:35:05.887Z,99.90
2022-11-22T08:37:32.711Z,99.90
2022-11-22T08:39:59.441Z,99.90
2022-11-22T08:42:26.173Z,99.90
2022-11-22T08:44:52.926Z,99.90
2022-11-22T08:47:19.739Z,99.90
2022-11-22T08:49:46.495Z,99.90
2022-11-22T08:52:13.638Z,99.90
2022-11-22T08:57:08.042Z,99.90
2022-11-22T08:59:35.050Z,99.90
2022-11-22T09:02:01.830Z,99.90
2022-11-22T09:04:28.702Z,99.90
2022-11-22T09:09:42.196Z,97.30
2022-11-22T09:12:08.889Z,94.70
2022-11-22T09:14:36.099Z,92.50
2022-11-22T09:17:02.893Z,91.00
2022-11-22T09:19:29.957Z,91.40
2022-11-22T09:21:56.935Z,90.70
2022-11-22T09:24:23.626Z,90.90
2022-11-22T09:29:17.444Z,93.00
2022-11-22T09:31:44.194Z,93.20
2022-11-22T09:34:10.933Z,91.40
2022-11-22T09:39:04.841Z,90.60
2022-11-22T09:41:42.128Z,89.70
2022-11-22T09:44:35.292Z,87.80
2022-11-22T09:47:10.331Z,87.70
2022-11-22T09:49:39.909Z,85.10
2022-11-22T09:52:19.476Z,83.90
2022-11-22T09:55:11.118Z,84.30
2022-11-22T09:57:44.143Z,84.10
2022-11-22T10:00:27.296Z,85.40
2022-11-22T10:03:08.310Z,86.80
2022-11-22T10:05:51.305Z,83.90
2022-11-22T10:08:27.082Z,81.70
2022-11-22T10:10:57.514Z,78.00
2022-11-22T10:13:31.715Z,79.90
2022-11-22T10:16:30.966Z,81.50
2022-11-22T10:19:11.874Z,79.20
2022-11-22T10:24:06.490Z,75.30
2022-11-22T10:26:34.576Z,77.10
2022-11-22T10:29:06.674Z,79.10
2022-11-22T10:31:57.685Z,77.90
2022-11-22T10:34:38.768Z,77.50
2022-11-22T10:37:39.208Z,77.80
2022-11-22T10:40:19.796Z,80.30
2022-11-22T10:42:55.303Z,77.60
2022-11-22T10:45:30.974Z,74.00
2022-11-22T10:48:12.471Z,73.60
2022-11-22T10:51:09.624Z,72.20
2022-11-22T10:53:39.431Z,72.60
2022-11-22T10:56:32.134Z,76.60
2022-11-22T10:59:01.528Z,73.50
2022-11-22T11:02:16.296Z,73.60
2022-11-22T11:04:44.666Z,74.40
2022-11-22T11:07:19.309Z,74.30
2022-11-22T11:10:10.677Z,73.10
2022-11-22T11:13:05.745Z,71.10
2022-11-22T11:15:37.706Z,73.80
2022-11-22T11:18:21.217Z,74.10
2022-11-22T11:20:48.099Z,75.00
2022-11-22T11:23:16.212Z,75.60
2022-11-22T11:25:45.578Z,73.60
2022-11-22T11:28:20.173Z,72.80
2022-11-22T11:31:18.571Z,72.70
2022-11-22T11:33:46.487Z,75.40
2022-11-22T11:36:23.472Z,76.80
2022-11-22T11:38:53.968Z,76.70
2022-11-22T11:41:25.189Z,76.60
2022-11-22T11:43:57.587Z,78.20
2022-11-22T11:46:27.254Z,79.60
2022-11-22T11:48:56.031Z,81.20
2022-11-22T11:51:37.048Z,79.40
2022-11-22T11:54:18.486Z,79.00
2022-11-22T11:56:50.903Z,79.60
2022-11-22T11:59:22.690Z,78.50
2022-11-22T12:01:58.253Z,77.20
2022-11-22T12:04:29.625Z,77.00
2022-11-22T12:07:24.234Z,78.60
2022-11-22T12:09:52.678Z,79.40
2022-11-22T12:12:48.518Z,78.80
2022-11-22T12:15:29.169Z,79.00
2022-11-22T12:18:01.709Z,79.10
2022-11-22T12:21:00.420Z,77.70
2022-11-22T12:23:37.934Z,77.50
2022-11-22T12:26:05.052Z,80.60
2022-11-22T12:28:32.658Z,80.40
2022-11-22T12:31:26.625Z,79.30
2022-11-22T12:34:05.967Z,79.20
2022-11-22T12:36:50.838Z,78.40
2022-11-22T12:39:26.869Z,79.80
2022-11-22T12:42:05.302Z,80.90
2022-11-22T12:44:41.821Z,82.10
2022-11-22T12:47:13.517Z,81.10
2022-11-22T12:49:57.318Z,79.70
2022-11-22T12:52:28.239Z,79.70
2022-11-22T12:55:09.401Z,80.20
2022-11-22T12:57:45.723Z,79.90
2022-11-22T13:00:47.817Z,79.30
2022-11-22T13:03:22.400Z,80.70
2022-11-22T13:05:54.367Z,79.40
2022-11-22T13:08:35.846Z,80.80
2022-11-22T13:11:15.408Z,81.30
2022-11-22T13:13:51.870Z,81.90
2022-11-22T13:16:18.754Z,82.20
2022-11-22T13:18:51.185Z,82.90
2022-11-22T13:21:26.761Z,82.00
2022-11-22T13:24:30.604Z,82.40
2022-11-22T13:27:10.656Z,83.30
2022-11-22T13:29:41.258Z,83.40
2022-11-22T13:32:17.535Z,84.10
2022-11-22T13:35:11.930Z,84.00
2022-11-22T13:37:42.577Z,84.30
2022-11-22T13:40:27.654Z,85.10
2022-11-22T13:43:17.924Z,85.40
2022-11-22T13:45:50.522Z,84.60
2022-11-22T13:48:38.852Z,84.70
2022-11-22T13:51:14.033Z,84.10
2022-11-22T13:53:43.698Z,83.80
2022-11-22T13:56:16.396Z,84.10
2022-11-22T13:58:52.062Z,84.00
2022-11-22T14:01:51.855Z,84.20
2022-11-22T14:04:40.324Z,84.90
2022-11-22T14:07:22.343Z,85.10
2022-11-22T14:09:52.076Z,84.40
2022-11-22T14:12:37.047Z,85.10
2022-11-22T14:15:40.547Z,85.10
2022-11-22T14:18:27.522Z,84.80
2022-11-22T14:21:27.631Z,84.40
2022-11-22T14:24:25.311Z,85.30
2022-11-22T14:27:18.580Z,85.60
2022-11-22T14:30:04.158Z,84.70
2022-11-22T14:32:54.600Z,85.20
2022-11-22T14:35:40.594Z,85.50
2022-11-22T14:38:33.883Z,85.70
2022-11-22T14:41:28.729Z,86.00
2022-11-22T14:44:08.737Z,86.40
2022-11-22T14:46:54.612Z,86.60
2022-11-22T14:49:44.169Z,86.60
2022-11-22T14:52:25.027Z,86.90
2022-11-22T14:55:06.082Z,87.10
2022-11-22T14:57:34.827Z,87.70
2022-11-22T15:00:14.250Z,87.90
2022-11-22T15:03:05.504Z,87.20
2022-11-22T15:09:09.894Z,86.80
2022-11-22T15:09:52.601Z,87.20
2022-11-22T15:12:20.250Z,86.80
2022-11-22T15:58:03.405Z,92.10
2022-11-22T16:00:30.291Z,92.00
2022-11-22T16:03:01.510Z,92.30
2022-11-22T16:06:06.485Z,92.10
2022-11-22T16:08:21.989Z,91.70
2022-11-22T16:10:50.760Z,91.90
2022-11-22T16:13:20.421Z,91.70
2022-11-22T16:16:17.553Z,91.70
2022-11-22T16:18:45.046Z,90.90
2022-11-22T16:21:11.769Z,91.20
2022-11-22T16:23:42.536Z,90.80
2022-11-22T16:26:21.962Z,90.90
2022-11-22T16:28:56.346Z,90.90
2022-11-22T16:31:29.688Z,91.10
2022-11-22T16:33:57.389Z,91.10
2022-11-22T16:36:29.555Z,91.10
2022-11-22T16:38:56.303Z,91.40
2022-11-22T16:41:28.731Z,91.60
2022-11-22T16:44:00.769Z,91.70
2022-11-22T16:48:55.785Z,92.10
2022-11-22T16:51:30.310Z,92.20
2022-11-22T16:54:00.540Z,92.60
2022-11-22T16:56:29.325Z,93.30
2022-11-22T16:58:57.679Z,93.40
2022-11-22T17:01:26.832Z,93.50
2022-11-22T17:03:56.426Z,93.60
2022-11-22T17:06:25.695Z,93.70
2022-11-22T17:08:54.429Z,93.10
2022-11-22T17:11:26.420Z,93.60
2022-11-22T17:13:53.618Z,93.90
2022-11-22T17:16:20.504Z,94.30
2022-11-22T17:18:48.218Z,94.50
2022-11-22T17:21:31.572Z,94.80
2022-11-22T17:24:05.008Z,94.90
2022-11-22T17:26:32.742Z,95.00
2022-11-22T17:28:59.461Z,94.80
2022-11-22T17:31:28.574Z,94.70
2022-11-22T17:33:57.883Z,94.90
2022-11-22T17:36:32.137Z,94.80
2022-11-22T17:39:00.548Z,95.00
2022-11-22T17:41:27.668Z,94.70
2022-11-22T17:43:54.517Z,94.80
2022-11-22T17:46:21.289Z,95.00
2022-11-22T17:48:56.176Z,95.00
2022-11-22T17:51:23.074Z,95.20
2022-11-22T17:53:50.025Z,95.30
2022-11-22T17:56:17.229Z,95.30
2022-11-22T17:58:43.969Z,95.00
2022-11-22T18:01:12.085Z,95.40
2022-11-22T18:03:40.088Z,95.40
2022-11-22T18:06:08.063Z,95.50
2022-11-22T18:08:35.066Z,95.60
2022-11-22T18:11:02.003Z,95.90
2022-11-22T18:13:30.550Z,95.70
2022-11-22T18:16:03.326Z,95.70
2022-11-22T18:21:18.722Z,96.40
2022-11-22T18:23:45.461Z,96.50
2022-11-22T18:29:32.616Z,97.10
2022-11-22T18:31:54.305Z,96.90
2022-11-22T18:34:22.555Z,96.90
2022-11-22T18:36:55.289Z,96.90
2022-11-22T18:39:24.810Z,97.30
2022-11-22T18:41:51.616Z,97.40
2022-11-22T18:44:18.500Z,97.30
2022-11-22T18:46:45.221Z,97.10
2022-11-22T18:49:12.000Z,97.00
2022-11-22T18:51:38.836Z,97.20
2022-11-22T18:54:05.719Z,97.60
2022-11-22T18:59:06.273Z,97.40
2022-11-22T19:04:01.864Z,97.30
2022-11-22T19:06:28.684Z,97.30
2022-11-22T19:08:55.569Z,97.70
2022-11-22T19:11:22.292Z,98.20
2022-11-22T19:13:49.130Z,98.20
2022-11-22T19:16:18.544Z,97.70
2022-11-22T19:18:45.814Z,97.60
2022-11-22T19:21:15.300Z,97.60
2022-11-22T19:23:42.553Z,97.70
2022-11-22T19:26:11.531Z,97.60
2022-11-22T19:28:38.653Z,97.80
2022-11-22T19:31:07.866Z,98.10
2022-11-22T19:33:35.470Z,98.10
2022-11-22T19:36:07.606Z,98.20
2022-11-22T19:38:34.372Z,97.90
2022-11-22T19:41:01.162Z,98.10
2022-11-22T19:43:27.949Z,98.10
2022-11-22T19:46:00.591Z,98.10
2022-11-22T19:48:27.824Z,98.30
2022-11-22T19:53:21.713Z,98.40
2022-11-22T19:55:48.479Z,98.30
2022-11-22T19:58:15.437Z,98.50
2022-11-22T20:00:42.260Z,98.40
2022-11-22T20:03:14.893Z,98.40
2022-11-22T20:05:42.077Z,98.40
2022-11-22T20:10:38.343Z,99.00
2022-11-22T20:13:08.067Z,98.70
2022-11-22T20:15:37.339Z,98.60
2022-11-22T20:20:31.325Z,98.50
2022-11-22T20:22:58.070Z,98.80
2022-11-22T20:25:24.847Z,98.50
2022-11-22T20:27:51.597Z,98.40
2022-11-22T20:30:18.515Z,98.60
2022-11-22T20:32:45.289Z,98.60
2022-11-22T20:35:12.007Z,98.70
2022-11-22T20:37:38.903Z,98.60
2022-11-22T20:40:06.265Z,98.70
2022-11-22T20:42:34.512Z,98.80
2022-11-22T20:45:03.470Z,98.70
2022-11-22T20:47:30.937Z,98.70
2022-11-22T20:52:24.925Z,98.50
2022-11-22T20:54:51.691Z,98.80
2022-11-22T20:57:18.501Z,98.70
2022-11-22T21:02:12.525Z,98.40
2022-11-22T21:04:39.349Z,98.20
2022-11-22T21:07:06.420Z,98.00
2022-11-22T21:09:33.231Z,98.10
2022-11-22T21:11:59.948Z,98.10
2022-11-22T21:14:26.671Z,98.20
2022-11-22T21:16:53.517Z,98.30
2022-11-22T21:19:20.285Z,98.10
2022-11-22T21:21:47.046Z,98.00
2022-11-22T21:24:14.028Z,98.30
2022-11-22T21:26:40.842Z,98.20
2022-11-22T21:29:16.020Z,98.00
2022-11-22T21:31:43.120Z,98.20
2022-11-22T21:34:10.119Z,98.20
2022-11-22T21:36:36.829Z,98.30
2022-11-22T21:39:03.619Z,98.30
2022-11-22T21:41:45.618Z,98.30
2022-11-22T21:44:12.464Z,98.40
2022-11-22T21:46:39.601Z,98.30
2022-11-22T21:49:07.009Z,98.20
2022-11-22T21:51:33.807Z,98.50
2022-11-22T21:54:01.974Z,98.60
2022-11-22T21:56:29.207Z,98.80
2022-11-22T21:58:56.036Z,98.50
2022-11-22T22:01:23.844Z,98.70
2022-11-22T22:03:51.311Z,98.80
2022-11-22T22:06:18.276Z,98.80
2022-11-22T22:08:45.097Z,99.20
2022-11-22T22:11:12.431Z,99.70
2022-11-22T22:13:39.312Z,99.90
2022-11-22T22:16:07.277Z,99.90
2022-11-22T22:18:36.108Z,99.90
2022-11-22T22:21:08.405Z,99.90
2022-11-22T22:23:36.639Z,99.90
2022-11-22T22:26:08.727Z,99.90
2022-11-22T22:28:36.919Z,99.90
2022-11-22T22:31:12.709Z,99.90
2022-11-22T22:33:41.477Z,99.90
2022-11-22T22:36:10.160Z,99.90
2022-11-22T22:38:36.900Z,99.90
2022-11-22T22:41:05.225Z,99.90
2022-11-22T22:43:37.040Z,99.90
2022-11-22T22:46:10.158Z,99.90
2022-11-22T22:48:36.890Z,99.90
2022-11-22T22:51:12.640Z,99.80
2022-11-22T22:53:39.654Z,99.90
2022-11-22T22:56:07.518Z,99.70
2022-11-22T22:58:34.555Z,99.80
2022-11-22T23:01:21.682Z,99.90
2022-11-22T23:03:54.107Z,99.70
2022-11-22T23:06:22.177Z,99.80
2022-11-22T23:08:50.665Z,99.40
2022-11-22T23:11:19.735Z,99.40
2022-11-22T23:13:46.666Z,99.50
2022-11-22T23:16:14.805Z,99.20
2022-11-22T23:18:44.057Z,99.10
2022-11-22T23:21:13.630Z,99.30
2022-11-22T23:23:40.368Z,99.60
2022-11-22T23:26:12.208Z,99.10
2022-11-22T23:31:12.205Z,99.40
2022-11-22T23:36:12.018Z,99.70
2022-11-22T23:38:39.488Z,99.70
2022-11-22T23:41:06.404Z,99.80
2022-11-22T23:43:33.206Z,99.90
2022-11-22T23:45:59.964Z,99.30
2022-11-22T23:48:29.456Z,99.50
2022-11-22T23:50:56.291Z,99.50
2022-11-22T23:53:23.055Z,99.60
2022-11-22T23:58:16.934Z,99.40
